sensor_id;sensor_type;location;lat;lon;timestamp;P1;durP1;ratioP1;P2;durP2;ratioP2
65667;SDS011;52369;52.542;13.232;2023-05-02T00:02:18;12.85;;;6.40;;
65667;SDS011;52369;52.542;13.232;2023-05-02T00:04:44;9.80;;;5.70;;
65667;SDS011;52369;52.542;13.232;2023-05-02T00:07:10;11.20;;;5.97;;
65667;SDS011;52369;52.542;13.232;2023-05-02T00:09:36;10.77;;;6.38;;
65667;SDS011;52369;52.542;13.232;2023-05-02T00:12:03;11.80;;;6.30;;
65667;SDS011;52369;52.542;13.232;2023-05-02T00:14:29;11.40;;;6.10;;
65667;SDS011;52369;52.542;13.232;2023-05-02T00:16:55;10.20;;;6.18;;
65667;SDS011;52369;52.542;13.232;2023-05-02T00:19:21;10.50;;;5.90;;
65667;SDS011;52369;52.542;13.232;2023-05-02T00:21:47;10.30;;;5.97;;
65667;SDS011;52369;52.542;13.232;2023-05-02T00:24:14;11.77;;;6.75;;
65667;SDS011;52369;52.542;13.232;2023-05-02T00:26:40;11.68;;;6.13;;
65667;SDS011;52369;52.542;13.232;2023-05-02T00:29:06;14.88;;;6.13;;
65667;SDS011;52369;52.542;13.232;2023-05-02T00:31:32;12.55;;;6.25;;
65667;SDS011;52369;52.542;13.232;2023-05-02T00:33:59;11.85;;;6.57;;
65667;SDS011;52369;52.542;13.232;2023-05-02T00:36:25;10.95;;;6.07;;
65667;SDS011;52369;52.542;13.232;2023-05-02T00:38:52;9.40;;;6.35;;
65667;SDS011;52369;52.542;13.232;2023-05-02T00:41:18;11.43;;;6.25;;
65667;SDS011;52369;52.542;13.232;2023-05-02T00:43:44;9.23;;;5.63;;
65667;SDS011;52369;52.542;13.232;2023-05-02T00:46:10;10.40;;;6.35;;
65667;SDS011;52369;52.542;13.232;2023-05-02T00:48:37;8.45;;;5.75;;
65667;SDS011;52369;52.542;13.232;2023-05-02T00:51:03;10.93;;;6.35;;
65667;SDS011;52369;52.542;13.232;2023-05-02T00:53:30;12.93;;;6.72;;
65667;SDS011;52369;52.542;13.232;2023-05-02T00:55:57;12.55;;;7.07;;
65667;SDS011;52369;52.542;13.232;2023-05-02T00:58:23;12.48;;;6.60;;
65667;SDS011;52369;52.542;13.232;2023-05-02T01:03:45;14.50;;;7.10;;
65667;SDS011;52369;52.542;13.232;2023-05-02T01:06:23;11.63;;;6.88;;
65667;SDS011;52369;52.542;13.232;2023-05-02T01:11:45;13.07;;;6.57;;
65667;SDS011;52369;52.542;13.232;2023-05-02T01:14:13;10.73;;;6.03;;
65667;SDS011;52369;52.542;13.232;2023-05-02T01:16:40;17.88;;;6.47;;
65667;SDS011;52369;52.542;13.232;2023-05-02T01:19:08;9.63;;;6.20;;
65667;SDS011;52369;52.542;13.232;2023-05-02T01:21:38;10.30;;;5.97;;
65667;SDS011;52369;52.542;13.232;2023-05-02T01:24:06;11.38;;;6.38;;
65667;SDS011;52369;52.542;13.232;2023-05-02T01:26:38;10.82;;;6.57;;
65667;SDS011;52369;52.542;13.232;2023-05-02T01:29:08;10.07;;;5.80;;
65667;SDS011;52369;52.542;13.232;2023-05-02T01:31:37;10.75;;;5.90;;
65667;SDS011;52369;52.542;13.232;2023-05-02T01:34:04;9.40;;;5.93;;
65667;SDS011;52369;52.542;13.232;2023-05-02T01:36:31;10.45;;;5.90;;
65667;SDS011;52369;52.542;13.232;2023-05-02T01:38:59;9.52;;;6.28;;
65667;SDS011;52369;52.542;13.232;2023-05-02T01:41:26;10.60;;;6.22;;
65667;SDS011;52369;52.542;13.232;2023-05-02T01:43:54;8.65;;;5.82;;
65667;SDS011;52369;52.542;13.232;2023-05-02T01:46:21;12.30;;;6.50;;
65667;SDS011;52369;52.542;13.232;2023-05-02T01:48:48;9.57;;;6.40;;
65667;SDS011;52369;52.542;13.232;2023-05-02T01:51:16;9.73;;;5.72;;
65667;SDS011;52369;52.542;13.232;2023-05-02T01:53:44;11.45;;;6.00;;
65667;SDS011;52369;52.542;13.232;2023-05-02T01:56:11;8.68;;;6.13;;
65667;SDS011;52369;52.542;13.232;2023-05-02T01:58:37;11.50;;;6.00;;
65667;SDS011;52369;52.542;13.232;2023-05-02T02:01:04;9.65;;;5.57;;
65667;SDS011;52369;52.542;13.232;2023-05-02T02:03:30;8.77;;;5.68;;
65667;SDS011;52369;52.542;13.232;2023-05-02T02:05:56;10.65;;;5.97;;
65667;SDS011;52369;52.542;13.232;2023-05-02T02:08:23;13.30;;;5.93;;
65667;SDS011;52369;52.542;13.232;2023-05-02T02:10:52;13.50;;;6.20;;
65667;SDS011;52369;52.542;13.232;2023-05-02T02:13:21;11.23;;;5.85;;
65667;SDS011;52369;52.542;13.232;2023-05-02T02:15:50;11.07;;;5.95;;
65667;SDS011;52369;52.542;13.232;2023-05-02T02:18:21;10.82;;;6.20;;
65667;SDS011;52369;52.542;13.232;2023-05-02T02:20:49;10.68;;;5.97;;
65667;SDS011;52369;52.542;13.232;2023-05-02T02:23:15;9.43;;;5.65;;
65667;SDS011;52369;52.542;13.232;2023-05-02T02:25:42;10.27;;;5.45;;
65667;SDS011;52369;52.542;13.232;2023-05-02T02:28:09;9.80;;;5.30;;
65667;SDS011;52369;52.542;13.232;2023-05-02T02:30:35;9.25;;;5.22;;
65667;SDS011;52369;52.542;13.232;2023-05-02T02:33:01;12.02;;;5.32;;
65667;SDS011;52369;52.542;13.232;2023-05-02T02:35:30;10.38;;;5.90;;
65667;SDS011;52369;52.542;13.232;2023-05-02T02:40:28;10.73;;;5.82;;
65667;SDS011;52369;52.542;13.232;2023-05-02T02:43:07;7.95;;;5.43;;
65667;SDS011;52369;52.542;13.232;2023-05-02T02:45:41;11.32;;;5.82;;
65667;SDS011;52369;52.542;13.232;2023-05-02T02:50:57;8.05;;;5.22;;
65667;SDS011;52369;52.542;13.232;2023-05-02T02:53:25;10.20;;;5.03;;
65667;SDS011;52369;52.542;13.232;2023-05-02T02:55:54;7.78;;;5.15;;
65667;SDS011;52369;52.542;13.232;2023-05-02T03:00:54;13.03;;;6.53;;
65667;SDS011;52369;52.542;13.232;2023-05-02T03:03:21;10.30;;;4.93;;
65667;SDS011;52369;52.542;13.232;2023-05-02T03:05:52;10.18;;;5.47;;
65667;SDS011;52369;52.542;13.232;2023-05-02T03:08:19;9.55;;;6.07;;
65667;SDS011;52369;52.542;13.232;2023-05-02T03:10:45;13.23;;;6.15;;
65667;SDS011;52369;52.542;13.232;2023-05-02T03:13:12;11.88;;;5.95;;
65667;SDS011;52369;52.542;13.232;2023-05-02T03:16:00;9.95;;;5.45;;
65667;SDS011;52369;52.542;13.232;2023-05-02T03:18:31;11.68;;;5.10;;
65667;SDS011;52369;52.542;13.232;2023-05-02T03:20:57;8.73;;;4.88;;
65667;SDS011;52369;52.542;13.232;2023-05-02T03:23:25;9.90;;;5.72;;
65667;SDS011;52369;52.542;13.232;2023-05-02T03:25:51;10.45;;;4.95;;
65667;SDS011;52369;52.542;13.232;2023-05-02T03:28:17;9.35;;;5.10;;
65667;SDS011;52369;52.542;13.232;2023-05-02T03:30:43;8.00;;;4.78;;
65667;SDS011;52369;52.542;13.232;2023-05-02T03:33:09;8.27;;;4.70;;
65667;SDS011;52369;52.542;13.232;2023-05-02T03:35:35;8.20;;;4.43;;
65667;SDS011;52369;52.542;13.232;2023-05-02T03:38:01;8.48;;;5.25;;
65667;SDS011;52369;52.542;13.232;2023-05-02T03:40:27;8.65;;;4.95;;
65667;SDS011;52369;52.542;13.232;2023-05-02T03:42:53;9.40;;;4.63;;
65667;SDS011;52369;52.542;13.232;2023-05-02T03:45:19;8.60;;;4.78;;
65667;SDS011;52369;52.542;13.232;2023-05-02T03:47:45;9.70;;;4.65;;
65667;SDS011;52369;52.542;13.232;2023-05-02T03:50:11;8.35;;;4.80;;
65667;SDS011;52369;52.542;13.232;2023-05-02T03:52:37;9.43;;;4.97;;
65667;SDS011;52369;52.542;13.232;2023-05-02T03:55:03;11.77;;;5.00;;
65667;SDS011;52369;52.542;13.232;2023-05-02T03:57:31;9.30;;;5.00;;
65667;SDS011;52369;52.542;13.232;2023-05-02T03:59:58;8.13;;;4.60;;
65667;SDS011;52369;52.542;13.232;2023-05-02T04:02:24;6.30;;;4.22;;
65667;SDS011;52369;52.542;13.232;2023-05-02T04:04:50;9.63;;;4.97;;
65667;SDS011;52369;52.542;13.232;2023-05-02T04:07:16;13.60;;;4.95;;
65667;SDS011;52369;52.542;13.232;2023-05-02T04:09:43;8.98;;;5.07;;
65667;SDS011;52369;52.542;13.232;2023-05-02T04:12:10;9.30;;;4.25;;
65667;SDS011;52369;52.542;13.232;2023-05-02T04:14:36;8.65;;;4.60;;
65667;SDS011;52369;52.542;13.232;2023-05-02T04:17:02;14.85;;;6.45;;
65667;SDS011;52369;52.542;13.232;2023-05-02T04:19:28;10.63;;;4.30;;
65667;SDS011;52369;52.542;13.232;2023-05-02T04:21:55;20.73;;;7.25;;
65667;SDS011;52369;52.542;13.232;2023-05-02T04:24:21;10.63;;;4.72;;
65667;SDS011;52369;52.542;13.232;2023-05-02T04:26:47;19.10;;;6.63;;
65667;SDS011;52369;52.542;13.232;2023-05-02T04:29:13;16.60;;;7.15;;
65667;SDS011;52369;52.542;13.232;2023-05-02T04:31:39;19.27;;;7.65;;
65667;SDS011;52369;52.542;13.232;2023-05-02T04:34:05;9.18;;;5.10;;
65667;SDS011;52369;52.542;13.232;2023-05-02T04:36:31;14.15;;;5.03;;
65667;SDS011;52369;52.542;13.232;2023-05-02T04:38:58;9.55;;;4.07;;
65667;SDS011;52369;52.542;13.232;2023-05-02T04:41:24;8.02;;;4.03;;
65667;SDS011;52369;52.542;13.232;2023-05-02T04:43:50;10.10;;;3.97;;
65667;SDS011;52369;52.542;13.232;2023-05-02T04:46:16;8.48;;;3.90;;
65667;SDS011;52369;52.542;13.232;2023-05-02T04:48:43;8.75;;;4.05;;
65667;SDS011;52369;52.542;13.232;2023-05-02T04:51:09;8.20;;;4.25;;
65667;SDS011;52369;52.542;13.232;2023-05-02T04:53:38;9.27;;;4.00;;
65667;SDS011;52369;52.542;13.232;2023-05-02T04:56:04;8.60;;;3.67;;
65667;SDS011;52369;52.542;13.232;2023-05-02T04:58:31;8.93;;;4.00;;
65667;SDS011;52369;52.542;13.232;2023-05-02T05:00:59;7.75;;;3.88;;
65667;SDS011;52369;52.542;13.232;2023-05-02T05:03:26;8.20;;;4.30;;
65667;SDS011;52369;52.542;13.232;2023-05-02T05:05:54;8.40;;;3.63;;
65667;SDS011;52369;52.542;13.232;2023-05-02T05:08:21;10.20;;;3.80;;
65667;SDS011;52369;52.542;13.232;2023-05-02T05:10:47;10.73;;;4.18;;
65667;SDS011;52369;52.542;13.232;2023-05-02T05:13:13;7.07;;;4.10;;
65667;SDS011;52369;52.542;13.232;2023-05-02T05:15:39;10.70;;;4.20;;
65667;SDS011;52369;52.542;13.232;2023-05-02T05:18:05;8.13;;;4.15;;
65667;SDS011;52369;52.542;13.232;2023-05-02T05:20:31;9.10;;;4.25;;
65667;SDS011;52369;52.542;13.232;2023-05-02T05:23:00;8.52;;;4.60;;
65667;SDS011;52369;52.542;13.232;2023-05-02T05:25:26;7.35;;;4.05;;
65667;SDS011;52369;52.542;13.232;2023-05-02T05:27:52;11.02;;;4.32;;
65667;SDS011;52369;52.542;13.232;2023-05-02T05:30:20;8.95;;;4.15;;
65667;SDS011;52369;52.542;13.232;2023-05-02T05:32:46;7.50;;;4.07;;
65667;SDS011;52369;52.542;13.232;2023-05-02T05:35:12;8.15;;;4.10;;
65667;SDS011;52369;52.542;13.232;2023-05-02T05:37:38;11.07;;;3.95;;
65667;SDS011;52369;52.542;13.232;2023-05-02T05:40:07;12.57;;;4.18;;
65667;SDS011;52369;52.542;13.232;2023-05-02T05:42:33;11.95;;;4.07;;
65667;SDS011;52369;52.542;13.232;2023-05-02T05:45:00;9.32;;;4.55;;
65667;SDS011;52369;52.542;13.232;2023-05-02T05:47:26;10.23;;;4.75;;
65667;SDS011;52369;52.542;13.232;2023-05-02T05:49:52;9.77;;;4.80;;
65667;SDS011;52369;52.542;13.232;2023-05-02T05:52:18;11.15;;;5.45;;
65667;SDS011;52369;52.542;13.232;2023-05-02T05:54:44;11.30;;;5.05;;
65667;SDS011;52369;52.542;13.232;2023-05-02T05:57:10;10.95;;;4.50;;
65667;SDS011;52369;52.542;13.232;2023-05-02T05:59:36;15.18;;;6.22;;
65667;SDS011;52369;52.542;13.232;2023-05-02T06:02:03;12.82;;;5.63;;
65667;SDS011;52369;52.542;13.232;2023-05-02T06:04:29;12.07;;;5.13;;
65667;SDS011;52369;52.542;13.232;2023-05-02T06:06:55;11.48;;;5.93;;
65667;SDS011;52369;52.542;13.232;2023-05-02T06:09:21;11.10;;;5.93;;
65667;SDS011;52369;52.542;13.232;2023-05-02T06:11:47;14.02;;;6.72;;
65667;SDS011;52369;52.542;13.232;2023-05-02T06:14:13;12.60;;;7.03;;
65667;SDS011;52369;52.542;13.232;2023-05-02T06:16:40;11.93;;;6.07;;
65667;SDS011;52369;52.542;13.232;2023-05-02T06:19:06;14.85;;;7.72;;
65667;SDS011;52369;52.542;13.232;2023-05-02T06:21:32;14.80;;;7.30;;
65667;SDS011;52369;52.542;13.232;2023-05-02T06:24:00;18.08;;;8.30;;
65667;SDS011;52369;52.542;13.232;2023-05-02T06:26:26;16.20;;;8.20;;
65667;SDS011;52369;52.542;13.232;2023-05-02T06:28:53;19.75;;;8.90;;
65667;SDS011;52369;52.542;13.232;2023-05-02T06:31:19;17.08;;;8.70;;
65667;SDS011;52369;52.542;13.232;2023-05-02T06:33:46;19.02;;;7.43;;
65667;SDS011;52369;52.542;13.232;2023-05-02T06:36:12;15.00;;;7.35;;
65667;SDS011;52369;52.542;13.232;2023-05-02T06:38:38;16.35;;;8.07;;
65667;SDS011;52369;52.542;13.232;2023-05-02T06:41:04;15.57;;;7.15;;
65667;SDS011;52369;52.542;13.232;2023-05-02T06:43:30;16.38;;;7.65;;
65667;SDS011;52369;52.542;13.232;2023-05-02T06:45:57;13.85;;;6.60;;
65667;SDS011;52369;52.542;13.232;2023-05-02T06:48:23;13.55;;;6.68;;
65667;SDS011;52369;52.542;13.232;2023-05-02T06:50:52;15.38;;;6.90;;
65667;SDS011;52369;52.542;13.232;2023-05-02T06:53:19;14.90;;;7.32;;
65667;SDS011;52369;52.542;13.232;2023-05-02T06:55:45;12.27;;;6.20;;
65667;SDS011;52369;52.542;13.232;2023-05-02T06:58:12;13.32;;;6.38;;
65667;SDS011;52369;52.542;13.232;2023-05-02T07:00:38;13.60;;;6.93;;
65667;SDS011;52369;52.542;13.232;2023-05-02T07:03:04;13.85;;;6.38;;
65667;SDS011;52369;52.542;13.232;2023-05-02T07:05:30;12.40;;;6.25;;
65667;SDS011;52369;52.542;13.232;2023-05-02T07:07:56;13.38;;;6.70;;
65667;SDS011;52369;52.542;13.232;2023-05-02T07:10:23;13.75;;;6.85;;
65667;SDS011;52369;52.542;13.232;2023-05-02T07:12:49;14.20;;;7.10;;
65667;SDS011;52369;52.542;13.232;2023-05-02T07:15:15;11.75;;;6.18;;
65667;SDS011;52369;52.542;13.232;2023-05-02T07:17:41;13.02;;;6.50;;
65667;SDS011;52369;52.542;13.232;2023-05-02T07:20:09;13.75;;;6.35;;
65667;SDS011;52369;52.542;13.232;2023-05-02T07:22:36;13.07;;;6.15;;
65667;SDS011;52369;52.542;13.232;2023-05-02T07:25:02;13.45;;;7.03;;
65667;SDS011;52369;52.542;13.232;2023-05-02T07:27:28;13.50;;;7.00;;
65667;SDS011;52369;52.542;13.232;2023-05-02T07:29:54;12.70;;;5.90;;
65667;SDS011;52369;52.542;13.232;2023-05-02T07:32:20;13.35;;;5.85;;
65667;SDS011;52369;52.542;13.232;2023-05-02T07:34:48;14.00;;;6.32;;
65667;SDS011;52369;52.542;13.232;2023-05-02T07:37:18;13.15;;;6.32;;
65667;SDS011;52369;52.542;13.232;2023-05-02T07:39:44;12.38;;;6.32;;
65667;SDS011;52369;52.542;13.232;2023-05-02T07:42:10;11.55;;;5.88;;
65667;SDS011;52369;52.542;13.232;2023-05-02T07:44:36;13.95;;;5.82;;
65667;SDS011;52369;52.542;13.232;2023-05-02T07:47:02;13.25;;;5.78;;
65667;SDS011;52369;52.542;13.232;2023-05-02T07:49:28;16.88;;;6.85;;
65667;SDS011;52369;52.542;13.232;2023-05-02T07:51:55;14.60;;;6.63;;
65667;SDS011;52369;52.542;13.232;2023-05-02T07:54:21;11.45;;;5.18;;
65667;SDS011;52369;52.542;13.232;2023-05-02T07:56:50;13.23;;;6.45;;
65667;SDS011;52369;52.542;13.232;2023-05-02T07:59:16;9.13;;;4.45;;
65667;SDS011;52369;52.542;13.232;2023-05-02T08:01:42;9.80;;;4.50;;
65667;SDS011;52369;52.542;13.232;2023-05-02T08:04:09;9.85;;;4.45;;
65667;SDS011;52369;52.542;13.232;2023-05-02T08:06:35;10.25;;;4.43;;
65667;SDS011;52369;52.542;13.232;2023-05-02T08:09:01;9.10;;;4.68;;
65667;SDS011;52369;52.542;13.232;2023-05-02T08:11:27;10.68;;;4.55;;
65667;SDS011;52369;52.542;13.232;2023-05-02T08:13:53;10.90;;;4.90;;
65667;SDS011;52369;52.542;13.232;2023-05-02T08:16:19;7.78;;;4.50;;
65667;SDS011;52369;52.542;13.232;2023-05-02T08:18:45;9.60;;;4.20;;
65667;SDS011;52369;52.542;13.232;2023-05-02T08:21:12;8.90;;;5.07;;
65667;SDS011;52369;52.542;13.232;2023-05-02T08:23:39;10.88;;;5.78;;
65667;SDS011;52369;52.542;13.232;2023-05-02T08:26:06;7.90;;;3.80;;
65667;SDS011;52369;52.542;13.232;2023-05-02T08:28:32;9.93;;;4.75;;
65667;SDS011;52369;52.542;13.232;2023-05-02T08:30:58;25.98;;;11.00;;
65667;SDS011;52369;52.542;13.232;2023-05-02T08:33:24;11.77;;;5.45;;
65667;SDS011;52369;52.542;13.232;2023-05-02T08:35:50;9.23;;;4.25;;
65667;SDS011;52369;52.542;13.232;2023-05-02T08:38:17;10.77;;;4.72;;
65667;SDS011;52369;52.542;13.232;2023-05-02T08:40:43;9.02;;;4.60;;
65667;SDS011;52369;52.542;13.232;2023-05-02T08:43:10;8.70;;;4.10;;
65667;SDS011;52369;52.542;13.232;2023-05-02T08:45:43;8.88;;;4.85;;
65667;SDS011;52369;52.542;13.232;2023-05-02T08:48:12;6.95;;;3.58;;
65667;SDS011;52369;52.542;13.232;2023-05-02T08:50:43;11.30;;;5.10;;
65667;SDS011;52369;52.542;13.232;2023-05-02T08:53:12;14.00;;;5.82;;
65667;SDS011;52369;52.542;13.232;2023-05-02T08:55:39;9.00;;;4.38;;
65667;SDS011;52369;52.542;13.232;2023-05-02T08:58:05;8.75;;;4.18;;
65667;SDS011;52369;52.542;13.232;2023-05-02T09:00:33;10.10;;;4.40;;
65667;SDS011;52369;52.542;13.232;2023-05-02T09:05:51;7.80;;;3.78;;
65667;SDS011;52369;52.542;13.232;2023-05-02T09:08:24;9.05;;;4.40;;
65667;SDS011;52369;52.542;13.232;2023-05-02T09:10:50;9.37;;;4.80;;
65667;SDS011;52369;52.542;13.232;2023-05-02T09:16:04;6.97;;;3.75;;
65667;SDS011;52369;52.542;13.232;2023-05-02T09:18:34;7.03;;;3.55;;
65667;SDS011;52369;52.542;13.232;2023-05-02T09:21:03;8.57;;;4.18;;
65667;SDS011;52369;52.542;13.232;2023-05-02T09:23:33;7.07;;;3.67;;
65667;SDS011;52369;52.542;13.232;2023-05-02T09:26:00;8.45;;;4.50;;
65667;SDS011;52369;52.542;13.232;2023-05-02T09:28:42;18.92;;;10.10;;
65667;SDS011;52369;52.542;13.232;2023-05-02T09:31:09;7.38;;;4.22;;
65667;SDS011;52369;52.542;13.232;2023-05-02T09:33:37;7.32;;;3.67;;
65667;SDS011;52369;52.542;13.232;2023-05-02T09:36:03;6.93;;;3.50;;
65667;SDS011;52369;52.542;13.232;2023-05-02T09:38:31;9.10;;;4.15;;
65667;SDS011;52369;52.542;13.232;2023-05-02T09:40:58;6.93;;;3.80;;
65667;SDS011;52369;52.542;13.232;2023-05-02T09:43:25;9.65;;;4.43;;
65667;SDS011;52369;52.542;13.232;2023-05-02T09:45:58;7.30;;;3.92;;
65667;SDS011;52369;52.542;13.232;2023-05-02T09:48:28;11.35;;;5.15;;
65667;SDS011;52369;52.542;13.232;2023-05-02T09:50:54;12.75;;;5.20;;
65667;SDS011;52369;52.542;13.232;2023-05-02T09:53:20;10.50;;;4.70;;
65667;SDS011;52369;52.542;13.232;2023-05-02T09:55:47;11.38;;;5.00;;
65667;SDS011;52369;52.542;13.232;2023-05-02T09:58:22;8.75;;;4.40;;
65667;SDS011;52369;52.542;13.232;2023-05-02T10:00:49;9.68;;;4.80;;
65667;SDS011;52369;52.542;13.232;2023-05-02T10:03:16;15.90;;;7.40;;
65667;SDS011;52369;52.542;13.232;2023-05-02T10:05:43;10.18;;;4.60;;
65667;SDS011;52369;52.542;13.232;2023-05-02T10:08:10;8.23;;;4.28;;
65667;SDS011;52369;52.542;13.232;2023-05-02T10:10:39;7.90;;;3.88;;
65667;SDS011;52369;52.542;13.232;2023-05-02T10:13:07;7.35;;;3.95;;
65667;SDS011;52369;52.542;13.232;2023-05-02T10:15:35;6.82;;;3.50;;
65667;SDS011;52369;52.542;13.232;2023-05-02T10:18:07;8.40;;;3.92;;
65667;SDS011;52369;52.542;13.232;2023-05-02T10:20:39;9.02;;;4.28;;
65667;SDS011;52369;52.542;13.232;2023-05-02T10:23:09;5.10;;;3.05;;
65667;SDS011;52369;52.542;13.232;2023-05-02T10:25:35;6.28;;;3.42;;
65667;SDS011;52369;52.542;13.232;2023-05-02T10:28:01;7.30;;;3.78;;
65667;SDS011;52369;52.542;13.232;2023-05-02T10:30:28;9.48;;;4.03;;
65667;SDS011;52369;52.542;13.232;2023-05-02T10:32:54;9.05;;;4.05;;
65667;SDS011;52369;52.542;13.232;2023-05-02T10:35:22;9.45;;;3.88;;
65667;SDS011;52369;52.542;13.232;2023-05-02T10:37:49;9.95;;;4.78;;
65667;SDS011;52369;52.542;13.232;2023-05-02T10:40:16;10.43;;;5.10;;
65667;SDS011;52369;52.542;13.232;2023-05-02T10:42:43;9.73;;;4.82;;
65667;SDS011;52369;52.542;13.232;2023-05-02T10:50:57;12.25;;;5.78;;
65667;SDS011;52369;52.542;13.232;2023-05-02T10:58:33;13.90;;;6.22;;
65667;SDS011;52369;52.542;13.232;2023-05-02T11:06:22;13.02;;;5.00;;
65667;SDS011;52369;52.542;13.232;2023-05-02T11:08:48;12.60;;;4.43;;
65667;SDS011;52369;52.542;13.232;2023-05-02T11:14:00;10.57;;;3.80;;
65667;SDS011;52369;52.542;13.232;2023-05-02T11:16:26;10.88;;;4.20;;
65667;SDS011;52369;52.542;13.232;2023-05-02T11:19:07;12.13;;;4.28;;
65667;SDS011;52369;52.542;13.232;2023-05-02T11:21:33;8.82;;;3.90;;
65667;SDS011;52369;52.542;13.232;2023-05-02T11:26:47;10.57;;;4.10;;
65667;SDS011;52369;52.542;13.232;2023-05-02T11:29:23;10.65;;;4.00;;
65667;SDS011;52369;52.542;13.232;2023-05-02T11:32:00;11.00;;;4.68;;
65667;SDS011;52369;52.542;13.232;2023-05-02T11:34:26;8.88;;;4.60;;
65667;SDS011;52369;52.542;13.232;2023-05-02T11:36:52;10.20;;;4.55;;
65667;SDS011;52369;52.542;13.232;2023-05-02T11:39:18;8.40;;;4.10;;
65667;SDS011;52369;52.542;13.232;2023-05-02T11:41:45;10.73;;;4.15;;
65667;SDS011;52369;52.542;13.232;2023-05-02T11:44:14;9.27;;;4.00;;
65667;SDS011;52369;52.542;13.232;2023-05-02T11:46:40;12.50;;;5.00;;
65667;SDS011;52369;52.542;13.232;2023-05-02T11:49:07;12.98;;;4.97;;
65667;SDS011;52369;52.542;13.232;2023-05-02T11:51:33;10.48;;;4.40;;
65667;SDS011;52369;52.542;13.232;2023-05-02T11:54:00;14.18;;;4.85;;
65667;SDS011;52369;52.542;13.232;2023-05-02T11:56:26;11.10;;;4.10;;
65667;SDS011;52369;52.542;13.232;2023-05-02T11:58:59;7.43;;;3.38;;
65667;SDS011;52369;52.542;13.232;2023-05-02T12:01:25;9.48;;;4.20;;
65667;SDS011;52369;52.542;13.232;2023-05-02T12:04:00;9.52;;;4.20;;
65667;SDS011;52369;52.542;13.232;2023-05-02T12:06:26;8.15;;;3.45;;
65667;SDS011;52369;52.542;13.232;2023-05-02T12:08:52;6.90;;;3.40;;
65667;SDS011;52369;52.542;13.232;2023-05-02T12:11:30;9.15;;;4.35;;
65667;SDS011;52369;52.542;13.232;2023-05-02T12:13:56;12.68;;;4.47;;
65667;SDS011;52369;52.542;13.232;2023-05-02T12:16:22;9.77;;;3.63;;
65667;SDS011;52369;52.542;13.232;2023-05-02T12:18:48;9.38;;;3.30;;
65667;SDS011;52369;52.542;13.232;2023-05-02T12:21:15;7.72;;;3.45;;
65667;SDS011;52369;52.542;13.232;2023-05-02T12:23:41;10.60;;;4.00;;
65667;SDS011;52369;52.542;13.232;2023-05-02T12:26:20;11.25;;;3.80;;
65667;SDS011;52369;52.542;13.232;2023-05-02T12:28:50;11.80;;;3.90;;
65667;SDS011;52369;52.542;13.232;2023-05-02T12:31:16;14.75;;;4.38;;
65667;SDS011;52369;52.542;13.232;2023-05-02T12:33:43;14.00;;;4.32;;
65667;SDS011;52369;52.542;13.232;2023-05-02T12:36:09;14.75;;;4.20;;
65667;SDS011;52369;52.542;13.232;2023-05-02T12:38:36;14.73;;;5.28;;
65667;SDS011;52369;52.542;13.232;2023-05-02T12:41:03;15.02;;;5.00;;
65667;SDS011;52369;52.542;13.232;2023-05-02T12:43:45;16.70;;;4.28;;
65667;SDS011;52369;52.542;13.232;2023-05-02T12:46:11;14.02;;;4.43;;
65667;SDS011;52369;52.542;13.232;2023-05-02T12:48:37;9.35;;;3.30;;
65667;SDS011;52369;52.542;13.232;2023-05-02T12:51:03;14.48;;;5.00;;
65667;SDS011;52369;52.542;13.232;2023-05-02T12:53:42;16.23;;;5.22;;
65667;SDS011;52369;52.542;13.232;2023-05-02T12:56:10;12.93;;;4.72;;
65667;SDS011;52369;52.542;13.232;2023-05-02T12:58:44;12.93;;;3.58;;
65667;SDS011;52369;52.542;13.232;2023-05-02T13:01:10;8.20;;;3.83;;
65667;SDS011;52369;52.542;13.232;2023-05-02T13:03:37;7.97;;;3.50;;
65667;SDS011;52369;52.542;13.232;2023-05-02T13:06:03;8.52;;;3.55;;
65667;SDS011;52369;52.542;13.232;2023-05-02T13:08:29;12.18;;;3.85;;
65667;SDS011;52369;52.542;13.232;2023-05-02T13:10:56;9.50;;;3.67;;
65667;SDS011;52369;52.542;13.232;2023-05-02T13:13:22;8.80;;;3.53;;
65667;SDS011;52369;52.542;13.232;2023-05-02T13:15:48;8.10;;;3.30;;
65667;SDS011;52369;52.542;13.232;2023-05-02T13:18:14;12.05;;;3.40;;
65667;SDS011;52369;52.542;13.232;2023-05-02T13:20:40;11.00;;;4.10;;
65667;SDS011;52369;52.542;13.232;2023-05-02T13:23:06;10.27;;;4.10;;
65667;SDS011;52369;52.542;13.232;2023-05-02T13:25:32;11.32;;;4.28;;
65667;SDS011;52369;52.542;13.232;2023-05-02T13:27:59;10.90;;;3.97;;
65667;SDS011;52369;52.542;13.232;2023-05-02T13:30:25;11.73;;;3.67;;
65667;SDS011;52369;52.542;13.232;2023-05-02T13:32:51;12.02;;;4.20;;
65667;SDS011;52369;52.542;13.232;2023-05-02T13:35:17;11.85;;;4.45;;
65667;SDS011;52369;52.542;13.232;2023-05-02T13:37:43;8.27;;;3.60;;
65667;SDS011;52369;52.542;13.232;2023-05-02T13:40:09;7.38;;;3.45;;
65667;SDS011;52369;52.542;13.232;2023-05-02T13:42:35;12.50;;;3.85;;
65667;SDS011;52369;52.542;13.232;2023-05-02T13:45:01;7.40;;;3.42;;
65667;SDS011;52369;52.542;13.232;2023-05-02T13:47:29;9.80;;;3.60;;
65667;SDS011;52369;52.542;13.232;2023-05-02T13:49:55;6.55;;;3.55;;
65667;SDS011;52369;52.542;13.232;2023-05-02T13:52:21;9.30;;;3.50;;
65667;SDS011;52369;52.542;13.232;2023-05-02T13:54:47;8.23;;;3.88;;
65667;SDS011;52369;52.542;13.232;2023-05-02T13:57:13;10.13;;;4.30;;
65667;SDS011;52369;52.542;13.232;2023-05-02T13:59:40;9.02;;;3.50;;
65667;SDS011;52369;52.542;13.232;2023-05-02T14:02:06;5.43;;;3.13;;
65667;SDS011;52369;52.542;13.232;2023-05-02T14:04:32;7.55;;;3.60;;
65667;SDS011;52369;52.542;13.232;2023-05-02T14:06:58;8.82;;;3.70;;
65667;SDS011;52369;52.542;13.232;2023-05-02T14:09:24;9.90;;;3.85;;
65667;SDS011;52369;52.542;13.232;2023-05-02T14:11:50;7.75;;;3.65;;
65667;SDS011;52369;52.542;13.232;2023-05-02T14:14:16;11.57;;;4.00;;
65667;SDS011;52369;52.542;13.232;2023-05-02T14:16:42;7.13;;;2.97;;
65667;SDS011;52369;52.542;13.232;2023-05-02T14:19:09;8.57;;;3.70;;
65667;SDS011;52369;52.542;13.232;2023-05-02T14:21:35;13.10;;;4.40;;
65667;SDS011;52369;52.542;13.232;2023-05-02T14:24:03;8.35;;;3.25;;
65667;SDS011;52369;52.542;13.232;2023-05-02T14:26:30;11.30;;;4.35;;
65667;SDS011;52369;52.542;13.232;2023-05-02T14:28:56;8.43;;;3.67;;
65667;SDS011;52369;52.542;13.232;2023-05-02T14:31:22;12.32;;;3.10;;
65667;SDS011;52369;52.542;13.232;2023-05-02T14:33:49;8.02;;;3.80;;
65667;SDS011;52369;52.542;13.232;2023-05-02T14:36:15;8.15;;;3.30;;
65667;SDS011;52369;52.542;13.232;2023-05-02T14:38:41;12.02;;;4.90;;
65667;SDS011;52369;52.542;13.232;2023-05-02T14:41:07;10.73;;;3.58;;
65667;SDS011;52369;52.542;13.232;2023-05-02T14:43:33;11.02;;;3.60;;
65667;SDS011;52369;52.542;13.232;2023-05-02T14:46:00;8.20;;;3.60;;
65667;SDS011;52369;52.542;13.232;2023-05-02T14:48:26;9.38;;;3.38;;
65667;SDS011;52369;52.542;13.232;2023-05-02T14:50:52;8.30;;;3.45;;
65667;SDS011;52369;52.542;13.232;2023-05-02T14:53:19;10.13;;;3.55;;
65667;SDS011;52369;52.542;13.232;2023-05-02T14:55:45;8.95;;;4.00;;
65667;SDS011;52369;52.542;13.232;2023-05-02T14:58:11;9.63;;;3.70;;
65667;SDS011;52369;52.542;13.232;2023-05-02T15:00:44;9.18;;;3.28;;
65667;SDS011;52369;52.542;13.232;2023-05-02T15:03:10;9.32;;;3.30;;
65667;SDS011;52369;52.542;13.232;2023-05-02T15:05:36;8.65;;;3.20;;
65667;SDS011;52369;52.542;13.232;2023-05-02T15:08:02;13.70;;;5.68;;
65667;SDS011;52369;52.542;13.232;2023-05-02T15:10:28;9.43;;;4.18;;